sensor_id;sensor_type;location;lat;lon;timestamp;P1;durP1;ratioP1;P2;durP2;ratioP2
2161;SDS011;1087;50.226;8.682;2023-04-06T00:01:06;8.37;;;7.53;;
2161;SDS011;1087;50.226;8.682;2023-04-06T00:03:32;8.07;;;7.27;;
2161;SDS011;1087;50.226;8.682;2023-04-06T00:05:57;7.07;;;6.30;;
2161;SDS011;1087;50.226;8.682;2023-04-06T00:08:23;6.30;;;5.70;;
2161;SDS011;1087;50.226;8.682;2023-04-06T00:10:50;6.00;;;5.30;;
2161;SDS011;1087;50.226;8.682;2023-04-06T00:13:16;6.93;;;6.10;;
2161;SDS011;1087;50.226;8.682;2023-04-06T00:15:42;5.67;;;5.17;;
2161;SDS011;1087;50.226;8.682;2023-04-06T00:18:07;6.47;;;5.97;;
2161;SDS011;1087;50.226;8.682;2023-04-06T00:20:33;6.93;;;6.23;;
2161;SDS011;1087;50.226;8.682;2023-04-06T00:22:58;6.50;;;5.90;;
2161;SDS011;1087;50.226;8.682;2023-04-06T00:25:25;7.03;;;6.37;;
2161;SDS011;1087;50.226;8.682;2023-04-06T00:27:51;7.30;;;5.70;;
2161;SDS011;1087;50.226;8.682;2023-04-06T00:30:16;6.37;;;5.83;;
2161;SDS011;1087;50.226;8.682;2023-04-06T00:32:42;8.00;;;7.23;;
2161;SDS011;1087;50.226;8.682;2023-04-06T00:35:08;6.40;;;5.80;;
2161;SDS011;1087;50.226;8.682;2023-04-06T00:37:33;8.30;;;6.07;;
2161;SDS011;1087;50.226;8.682;2023-04-06T00:39:59;6.67;;;6.00;;
2161;SDS011;1087;50.226;8.682;2023-04-06T00:42:25;6.90;;;6.20;;
2161;SDS011;1087;50.226;8.682;2023-04-06T00:44:52;7.40;;;6.70;;
2161;SDS011;1087;50.226;8.682;2023-04-06T00:47:18;6.57;;;6.03;;
2161;SDS011;1087;50.226;8.682;2023-04-06T00:49:43;6.97;;;6.37;;
2161;SDS011;1087;50.226;8.682;2023-04-06T00:52:09;6.67;;;5.90;;
2161;SDS011;1087;50.226;8.682;2023-04-06T00:54:35;6.40;;;5.67;;
2161;SDS011;1087;50.226;8.682;2023-04-06T00:57:00;6.50;;;5.90;;
2161;SDS011;1087;50.226;8.682;2023-04-06T00:59:27;8.13;;;5.80;;
2161;SDS011;1087;50.226;8.682;2023-04-06T01:01:53;6.00;;;5.20;;
2161;SDS011;1087;50.226;8.682;2023-04-06T01:04:19;6.00;;;5.50;;
2161;SDS011;1087;50.226;8.682;2023-04-06T01:06:50;6.50;;;5.80;;
2161;SDS011;1087;50.226;8.682;2023-04-06T01:09:16;7.57;;;6.77;;
2161;SDS011;1087;50.226;8.682;2023-04-06T01:11:42;7.40;;;6.70;;
2161;SDS011;1087;50.226;8.682;2023-04-06T01:14:08;6.30;;;5.70;;
2161;SDS011;1087;50.226;8.682;2023-04-06T01:16:34;6.37;;;5.87;;
2161;SDS011;1087;50.226;8.682;2023-04-06T01:19:01;6.80;;;6.10;;
2161;SDS011;1087;50.226;8.682;2023-04-06T01:21:36;6.67;;;5.97;;
2161;SDS011;1087;50.226;8.682;2023-04-06T01:24:03;6.87;;;6.17;;
2161;SDS011;1087;50.226;8.682;2023-04-06T01:26:29;5.80;;;5.23;;
2161;SDS011;1087;50.226;8.682;2023-04-06T01:28:55;8.43;;;6.40;;
2161;SDS011;1087;50.226;8.682;2023-04-06T01:31:21;6.87;;;6.20;;
2161;SDS011;1087;50.226;8.682;2023-04-06T01:33:47;6.70;;;6.00;;
2161;SDS011;1087;50.226;8.682;2023-04-06T01:36:12;7.40;;;6.70;;
2161;SDS011;1087;50.226;8.682;2023-04-06T01:38:39;7.90;;;6.40;;
2161;SDS011;1087;50.226;8.682;2023-04-06T01:41:04;6.87;;;6.27;;
2161;SDS011;1087;50.226;8.682;2023-04-06T01:43:30;6.87;;;6.27;;
2161;SDS011;1087;50.226;8.682;2023-04-06T01:45:55;8.00;;;7.30;;
2161;SDS011;1087;50.226;8.682;2023-04-06T01:48:21;8.17;;;7.10;;
2161;SDS011;1087;50.226;8.682;2023-04-06T01:50:46;7.57;;;6.87;;
2161;SDS011;1087;50.226;8.682;2023-04-06T01:53:12;7.60;;;6.87;;
2161;SDS011;1087;50.226;8.682;2023-04-06T01:55:38;8.70;;;6.70;;
2161;SDS011;1087;50.226;8.682;2023-04-06T01:58:03;7.67;;;6.90;;
2161;SDS011;1087;50.226;8.682;2023-04-06T02:00:29;8.33;;;7.53;;
2161;SDS011;1087;50.226;8.682;2023-04-06T02:02:55;7.90;;;7.20;;
2161;SDS011;1087;50.226;8.682;2023-04-06T02:05:20;8.70;;;7.80;;
2161;SDS011;1087;50.226;8.682;2023-04-06T02:07:46;11.13;;;7.50;;
2161;SDS011;1087;50.226;8.682;2023-04-06T02:10:12;9.83;;;7.27;;
2161;SDS011;1087;50.226;8.682;2023-04-06T02:12:39;7.70;;;7.00;;
2161;SDS011;1087;50.226;8.682;2023-04-06T02:15:04;8.53;;;7.73;;
2161;SDS011;1087;50.226;8.682;2023-04-06T02:17:30;11.10;;;8.50;;
2161;SDS011;1087;50.226;8.682;2023-04-06T02:19:56;8.33;;;7.40;;
2161;SDS011;1087;50.226;8.682;2023-04-06T02:22:22;10.00;;;8.20;;
2161;SDS011;1087;50.226;8.682;2023-04-06T02:24:47;8.00;;;7.20;;
2161;SDS011;1087;50.226;8.682;2023-04-06T02:27:14;8.77;;;7.80;;
2161;SDS011;1087;50.226;8.682;2023-04-06T02:29:39;8.13;;;7.33;;
2161;SDS011;1087;50.226;8.682;2023-04-06T02:32:05;9.17;;;7.90;;
2161;SDS011;1087;50.226;8.682;2023-04-06T02:34:31;9.73;;;8.30;;
2161;SDS011;1087;50.226;8.682;2023-04-06T02:36:57;10.77;;;9.03;;
2161;SDS011;1087;50.226;8.682;2023-04-06T02:39:22;10.43;;;9.40;;
2161;SDS011;1087;50.226;8.682;2023-04-06T02:41:48;10.90;;;9.47;;
2161;SDS011;1087;50.226;8.682;2023-04-06T02:44:13;13.27;;;8.77;;
2161;SDS011;1087;50.226;8.682;2023-04-06T02:46:39;10.03;;;8.07;;
2161;SDS011;1087;50.226;8.682;2023-04-06T02:49:05;8.80;;;6.97;;
2161;SDS011;1087;50.226;8.682;2023-04-06T02:51:30;11.33;;;8.60;;
2161;SDS011;1087;50.226;8.682;2023-04-06T02:53:56;7.93;;;7.23;;
2161;SDS011;1087;50.226;8.682;2023-04-06T02:56:22;9.90;;;8.57;;
2161;SDS011;1087;50.226;8.682;2023-04-06T02:58:47;9.90;;;8.43;;
2161;SDS011;1087;50.226;8.682;2023-04-06T03:01:13;7.63;;;6.80;;
2161;SDS011;1087;50.226;8.682;2023-04-06T03:03:38;7.63;;;6.73;;
2161;SDS011;1087;50.226;8.682;2023-04-06T03:06:04;8.03;;;7.10;;
2161;SDS011;1087;50.226;8.682;2023-04-06T03:08:30;8.83;;;6.60;;
2161;SDS011;1087;50.226;8.682;2023-04-06T03:10:56;7.13;;;6.43;;
2161;SDS011;1087;50.226;8.682;2023-04-06T03:13:21;7.57;;;6.63;;
2161;SDS011;1087;50.226;8.682;2023-04-06T03:15:47;7.87;;;6.80;;
2161;SDS011;1087;50.226;8.682;2023-04-06T03:18:12;8.80;;;6.50;;
2161;SDS011;1087;50.226;8.682;2023-04-06T03:20:38;9.63;;;7.53;;
2161;SDS011;1087;50.226;8.682;2023-04-06T03:23:04;9.20;;;7.23;;
2161;SDS011;1087;50.226;8.682;2023-04-06T03:25:29;8.40;;;7.60;;
2161;SDS011;1087;50.226;8.682;2023-04-06T03:27:55;8.73;;;7.83;;
2161;SDS011;1087;50.226;8.682;2023-04-06T03:30:21;9.77;;;7.77;;
2161;SDS011;1087;50.226;8.682;2023-04-06T03:32:46;8.47;;;7.70;;
2161;SDS011;1087;50.226;8.682;2023-04-06T03:35:12;7.73;;;6.73;;
2161;SDS011;1087;50.226;8.682;2023-04-06T03:37:38;10.10;;;7.83;;
2161;SDS011;1087;50.226;8.682;2023-04-06T03:40:04;8.53;;;7.60;;
2161;SDS011;1087;50.226;8.682;2023-04-06T03:42:30;10.20;;;7.80;;
2161;SDS011;1087;50.226;8.682;2023-04-06T03:44:57;10.23;;;7.80;;
2161;SDS011;1087;50.226;8.682;2023-04-06T03:47:23;8.27;;;7.17;;
2161;SDS011;1087;50.226;8.682;2023-04-06T03:49:49;10.67;;;8.57;;
2161;SDS011;1087;50.226;8.682;2023-04-06T03:52:15;8.00;;;7.30;;
2161;SDS011;1087;50.226;8.682;2023-04-06T03:54:40;7.80;;;7.10;;
2161;SDS011;1087;50.226;8.682;2023-04-06T03:57:06;9.03;;;8.13;;
2161;SDS011;1087;50.226;8.682;2023-04-06T03:59:32;8.80;;;7.97;;
2161;SDS011;1087;50.226;8.682;2023-04-06T04:01:57;8.13;;;7.40;;
2161;SDS011;1087;50.226;8.682;2023-04-06T04:04:23;11.03;;;8.30;;
2161;SDS011;1087;50.226;8.682;2023-04-06T04:06:48;9.43;;;7.47;;
2161;SDS011;1087;50.226;8.682;2023-04-06T04:09:14;7.97;;;7.27;;
2161;SDS011;1087;50.226;8.682;2023-04-06T04:11:40;10.63;;;7.83;;
2161;SDS011;1087;50.226;8.682;2023-04-06T04:14:05;9.97;;;8.97;;
2161;SDS011;1087;50.226;8.682;2023-04-06T04:16:31;14.90;;;10.37;;
2161;SDS011;1087;50.226;8.682;2023-04-06T04:18:56;10.50;;;9.40;;
2161;SDS011;1087;50.226;8.682;2023-04-06T04:21:23;8.97;;;8.07;;
2161;SDS011;1087;50.226;8.682;2023-04-06T04:23:50;8.93;;;7.93;;
2161;SDS011;1087;50.226;8.682;2023-04-06T04:26:17;11.10;;;10.00;;
2161;SDS011;1087;50.226;8.682;2023-04-06T04:28:43;11.03;;;8.10;;
2161;SDS011;1087;50.226;8.682;2023-04-06T04:31:08;10.30;;;8.90;;
2161;SDS011;1087;50.226;8.682;2023-04-06T04:33:34;11.40;;;8.13;;
2161;SDS011;1087;50.226;8.682;2023-04-06T04:36:00;10.17;;;8.70;;
2161;SDS011;1087;50.226;8.682;2023-04-06T04:38:25;9.17;;;7.77;;
2161;SDS011;1087;50.226;8.682;2023-04-06T04:40:51;9.40;;;7.40;;
2161;SDS011;1087;50.226;8.682;2023-04-06T04:43:16;13.63;;;8.73;;
2161;SDS011;1087;50.226;8.682;2023-04-06T04:45:42;12.50;;;11.17;;
2161;SDS011;1087;50.226;8.682;2023-04-06T04:48:07;14.00;;;10.47;;
2161;SDS011;1087;50.226;8.682;2023-04-06T04:50:33;11.00;;;9.40;;
2161;SDS011;1087;50.226;8.682;2023-04-06T04:52:59;12.03;;;9.40;;
2161;SDS011;1087;50.226;8.682;2023-04-06T04:55:24;8.70;;;7.80;;
2161;SDS011;1087;50.226;8.682;2023-04-06T04:57:51;10.27;;;9.27;;
2161;SDS011;1087;50.226;8.682;2023-04-06T05:00:16;9.00;;;8.00;;
2161;SDS011;1087;50.226;8.682;2023-04-06T05:02:42;8.63;;;7.83;;
2161;SDS011;1087;50.226;8.682;2023-04-06T05:05:07;11.00;;;8.20;;
2161;SDS011;1087;50.226;8.682;2023-04-06T05:07:33;9.90;;;7.97;;
2161;SDS011;1087;50.226;8.682;2023-04-06T05:09:59;9.83;;;7.90;;
2161;SDS011;1087;50.226;8.682;2023-04-06T05:12:25;11.27;;;8.30;;
2161;SDS011;1087;50.226;8.682;2023-04-06T05:14:52;9.30;;;8.40;;
2161;SDS011;1087;50.226;8.682;2023-04-06T05:17:18;9.77;;;8.53;;
2161;SDS011;1087;50.226;8.682;2023-04-06T05:19:44;9.80;;;8.80;;
2161;SDS011;1087;50.226;8.682;2023-04-06T05:22:10;9.93;;;8.10;;
2161;SDS011;1087;50.226;8.682;2023-04-06T05:24:36;9.33;;;8.43;;
2161;SDS011;1087;50.226;8.682;2023-04-06T05:27:02;15.10;;;8.57;;
2161;SDS011;1087;50.226;8.682;2023-04-06T05:29:28;11.83;;;9.77;;
2161;SDS011;1087;50.226;8.682;2023-04-06T05:31:54;10.00;;;9.10;;
2161;SDS011;1087;50.226;8.682;2023-04-06T05:34:20;14.70;;;10.33;;
2161;SDS011;1087;50.226;8.682;2023-04-06T05:36:45;10.10;;;9.10;;
2161;SDS011;1087;50.226;8.682;2023-04-06T05:39:12;12.60;;;10.17;;
2161;SDS011;1087;50.226;8.682;2023-04-06T05:41:38;13.13;;;10.63;;
2161;SDS011;1087;50.226;8.682;2023-04-06T05:44:03;15.70;;;9.57;;
2161;SDS011;1087;50.226;8.682;2023-04-06T05:46:29;12.27;;;9.70;;
2161;SDS011;1087;50.226;8.682;2023-04-06T05:48:55;12.60;;;9.63;;
2161;SDS011;1087;50.226;8.682;2023-04-06T05:51:21;11.37;;;10.17;;
2161;SDS011;1087;50.226;8.682;2023-04-06T05:53:46;17.93;;;12.17;;
2161;SDS011;1087;50.226;8.682;2023-04-06T05:56:12;15.97;;;12.30;;
2161;SDS011;1087;50.226;8.682;2023-04-06T05:58:37;15.33;;;11.83;;
2161;SDS011;1087;50.226;8.682;2023-04-06T06:01:03;14.70;;;11.50;;
2161;SDS011;1087;50.226;8.682;2023-04-06T06:03:29;16.17;;;13.20;;
2161;SDS011;1087;50.226;8.682;2023-04-06T06:06:02;30.47;;;22.60;;
2161;SDS011;1087;50.226;8.682;2023-04-06T06:08:28;36.90;;;25.10;;
2161;SDS011;1087;50.226;8.682;2023-04-06T06:10:54;30.30;;;22.73;;
2161;SDS011;1087;50.226;8.682;2023-04-06T06:13:20;26.50;;;20.93;;
2161;SDS011;1087;50.226;8.682;2023-04-06T06:15:46;18.60;;;16.70;;
2161;SDS011;1087;50.226;8.682;2023-04-06T06:18:12;15.73;;;14.13;;
2161;SDS011;1087;50.226;8.682;2023-04-06T06:20:38;13.70;;;12.10;;
2161;SDS011;1087;50.226;8.682;2023-04-06T06:23:03;14.30;;;12.80;;
2161;SDS011;1087;50.226;8.682;2023-04-06T06:25:29;13.43;;;12.20;;
2161;SDS011;1087;50.226;8.682;2023-04-06T06:27:55;11.30;;;10.20;;
2161;SDS011;1087;50.226;8.682;2023-04-06T06:30:21;13.80;;;12.30;;
2161;SDS011;1087;50.226;8.682;2023-04-06T06:32:47;17.00;;;13.13;;
2161;SDS011;1087;50.226;8.682;2023-04-06T06:35:13;17.33;;;14.47;;
2161;SDS011;1087;50.226;8.682;2023-04-06T06:37:39;16.60;;;13.50;;
2161;SDS011;1087;50.226;8.682;2023-04-06T06:40:04;18.83;;;13.07;;
2161;SDS011;1087;50.226;8.682;2023-04-06T06:42:30;13.33;;;11.37;;
2161;SDS011;1087;50.226;8.682;2023-04-06T06:44:56;12.83;;;11.30;;
2161;SDS011;1087;50.226;8.682;2023-04-06T06:47:22;11.57;;;10.50;;
2161;SDS011;1087;50.226;8.682;2023-04-06T06:49:47;11.97;;;10.70;;
2161;SDS011;1087;50.226;8.682;2023-04-06T06:52:13;12.83;;;10.40;;
2161;SDS011;1087;50.226;8.682;2023-04-06T06:54:38;13.20;;;11.90;;
2161;SDS011;1087;50.226;8.682;2023-04-06T06:57:04;12.97;;;11.77;;
2161;SDS011;1087;50.226;8.682;2023-04-06T06:59:30;13.50;;;12.10;;
2161;SDS011;1087;50.226;8.682;2023-04-06T07:01:55;14.63;;;11.50;;
2161;SDS011;1087;50.226;8.682;2023-04-06T07:04:21;12.67;;;11.43;;
2161;SDS011;1087;50.226;8.682;2023-04-06T07:06:46;14.70;;;11.23;;
2161;SDS011;1087;50.226;8.682;2023-04-06T07:09:12;12.57;;;11.47;;
2161;SDS011;1087;50.226;8.682;2023-04-06T07:11:37;12.53;;;11.20;;
2161;SDS011;1087;50.226;8.682;2023-04-06T07:14:03;14.10;;;12.70;;
2161;SDS011;1087;50.226;8.682;2023-04-06T07:16:28;12.57;;;11.17;;
2161;SDS011;1087;50.226;8.682;2023-04-06T07:18:54;17.10;;;11.60;;
2161;SDS011;1087;50.226;8.682;2023-04-06T07:21:20;13.07;;;11.77;;
2161;SDS011;1087;50.226;8.682;2023-04-06T07:23:46;14.23;;;12.77;;
2161;SDS011;1087;50.226;8.682;2023-04-06T07:26:13;13.27;;;11.87;;
2161;SDS011;1087;50.226;8.682;2023-04-06T07:28:38;12.27;;;11.00;;
2161;SDS011;1087;50.226;8.682;2023-04-06T07:31:04;12.73;;;11.23;;
2161;SDS011;1087;50.226;8.682;2023-04-06T07:33:30;14.57;;;11.93;;
2161;SDS011;1087;50.226;8.682;2023-04-06T07:35:56;13.20;;;11.80;;
2161;SDS011;1087;50.226;8.682;2023-04-06T07:38:23;15.73;;;12.63;;
2161;SDS011;1087;50.226;8.682;2023-04-06T07:40:48;13.40;;;12.17;;
2161;SDS011;1087;50.226;8.682;2023-04-06T07:43:14;13.90;;;12.20;;
2161;SDS011;1087;50.226;8.682;2023-04-06T07:45:40;14.43;;;12.23;;
2161;SDS011;1087;50.226;8.682;2023-04-06T07:48:06;14.03;;;12.73;;
2161;SDS011;1087;50.226;8.682;2023-04-06T07:50:31;14.23;;;12.83;;
2161;SDS011;1087;50.226;8.682;2023-04-06T07:52:57;14.50;;;13.00;;
2161;SDS011;1087;50.226;8.682;2023-04-06T07:55:22;13.90;;;12.60;;
2161;SDS011;1087;50.226;8.682;2023-04-06T07:57:48;14.47;;;12.97;;
2161;SDS011;1087;50.226;8.682;2023-04-06T08:00:14;15.10;;;13.50;;
2161;SDS011;1087;50.226;8.682;2023-04-06T08:02:40;15.67;;;14.17;;
2161;SDS011;1087;50.226;8.682;2023-04-06T08:05:05;14.10;;;12.60;;
2161;SDS011;1087;50.226;8.682;2023-04-06T08:07:32;15.47;;;12.90;;
2161;SDS011;1087;50.226;8.682;2023-04-06T08:09:57;20.20;;;13.03;;
2161;SDS011;1087;50.226;8.682;2023-04-06T08:12:23;15.10;;;13.17;;
2161;SDS011;1087;50.226;8.682;2023-04-06T08:14:48;15.63;;;14.03;;
2161;SDS011;1087;50.226;8.682;2023-04-06T08:17:14;17.70;;;13.60;;
2161;SDS011;1087;50.226;8.682;2023-04-06T08:19:41;14.93;;;13.43;;
2161;SDS011;1087;50.226;8.682;2023-04-06T08:22:08;16.63;;;14.03;;
2161;SDS011;1087;50.226;8.682;2023-04-06T08:24:33;15.60;;;13.25;;
2161;SDS011;1087;50.226;8.682;2023-04-06T08:26:59;17.70;;;12.20;;
2161;SDS011;1087;50.226;8.682;2023-04-06T08:29:25;14.60;;;13.10;;
2161;SDS011;1087;50.226;8.682;2023-04-06T08:31:50;15.23;;;13.67;;
2161;SDS011;1087;50.226;8.682;2023-04-06T08:34:16;13.97;;;12.57;;
2161;SDS011;1087;50.226;8.682;2023-04-06T08:36:41;13.27;;;11.50;;
2161;SDS011;1087;50.226;8.682;2023-04-06T08:39:07;14.20;;;11.77;;
2161;SDS011;1087;50.226;8.682;2023-04-06T08:41:32;14.73;;;13.13;;
2161;SDS011;1087;50.226;8.682;2023-04-06T08:43:59;14.13;;;12.80;;
2161;SDS011;1087;50.226;8.682;2023-04-06T08:46:26;14.40;;;12.90;;
2161;SDS011;1087;50.226;8.682;2023-04-06T08:48:58;14.20;;;12.83;;
2161;SDS011;1087;50.226;8.682;2023-04-06T08:51:26;17.60;;;12.73;;
2161;SDS011;1087;50.226;8.682;2023-04-06T08:53:53;16.60;;;12.73;;
2161;SDS011;1087;50.226;8.682;2023-04-06T08:56:20;14.10;;;12.70;;
2161;SDS011;1087;50.226;8.682;2023-04-06T08:58:50;14.17;;;12.87;;
2161;SDS011;1087;50.226;8.682;2023-04-06T09:01:17;16.80;;;12.07;;
2161;SDS011;1087;50.226;8.682;2023-04-06T09:03:45;13.30;;;11.90;;
2161;SDS011;1087;50.226;8.682;2023-04-06T09:06:13;13.93;;;12.63;;
2161;SDS011;1087;50.226;8.682;2023-04-06T09:08:39;15.00;;;13.17;;
2161;SDS011;1087;50.226;8.682;2023-04-06T09:11:06;13.93;;;12.33;;
2161;SDS011;1087;50.226;8.682;2023-04-06T09:13:44;13.67;;;12.37;;
2161;SDS011;1087;50.226;8.682;2023-04-06T09:16:13;16.27;;;12.53;;
2161;SDS011;1087;50.226;8.682;2023-04-06T09:18:39;12.43;;;11.33;;
2161;SDS011;1087;50.226;8.682;2023-04-06T09:21:05;14.30;;;12.90;;
2161;SDS011;1087;50.226;8.682;2023-04-06T09:23:31;12.90;;;11.63;;
2161;SDS011;1087;50.226;8.682;2023-04-06T09:26:14;13.40;;;12.10;;
2161;SDS011;1087;50.226;8.682;2023-04-06T09:28:45;15.13;;;11.83;;
2161;SDS011;1087;50.226;8.682;2023-04-06T09:31:22;14.37;;;12.27;;
2161;SDS011;1087;50.226;8.682;2023-04-06T09:33:49;13.50;;;12.10;;
2161;SDS011;1087;50.226;8.682;2023-04-06T09:36:15;13.40;;;12.17;;
2161;SDS011;1087;50.226;8.682;2023-04-06T09:38:54;14.37;;;12.50;;
2161;SDS011;1087;50.226;8.682;2023-04-06T09:41:22;14.43;;;12.30;;
2161;SDS011;1087;50.226;8.682;2023-04-06T09:43:49;14.37;;;13.03;;
2161;SDS011;1087;50.226;8.682;2023-04-06T09:46:30;12.57;;;11.37;;
2161;SDS011;1087;50.226;8.682;2023-04-06T09:48:57;13.30;;;11.90;;
2161;SDS011;1087;50.226;8.682;2023-04-06T09:51:23;14.40;;;11.43;;
2161;SDS011;1087;50.226;8.682;2023-04-06T09:53:52;14.47;;;13.07;;
2161;SDS011;1087;50.226;8.682;2023-04-06T09:56:20;14.03;;;12.37;;
2161;SDS011;1087;50.226;8.682;2023-04-06T09:58:50;12.50;;;10.90;;
2161;SDS011;1087;50.226;8.682;2023-04-06T10:01:21;11.83;;;10.70;;
2161;SDS011;1087;50.226;8.682;2023-04-06T10:03:52;13.93;;;11.93;;
2161;SDS011;1087;50.226;8.682;2023-04-06T10:06:26;13.30;;;11.60;;
2161;SDS011;1087;50.226;8.682;2023-04-06T10:08:54;12.03;;;10.10;;
2161;SDS011;1087;50.226;8.682;2023-04-06T10:11:22;11.80;;;10.60;;
2161;SDS011;1087;50.226;8.682;2023-04-06T10:13:47;13.87;;;10.67;;
2161;SDS011;1087;50.226;8.682;2023-04-06T10:16:14;11.83;;;9.47;;
2161;SDS011;1087;50.226;8.682;2023-04-06T10:18:42;14.93;;;11.33;;
2161;SDS011;1087;50.226;8.682;2023-04-06T10:21:16;13.57;;;10.87;;
2161;SDS011;1087;50.226;8.682;2023-04-06T10:23:52;14.20;;;11.50;;
2161;SDS011;1087;50.226;8.682;2023-04-06T10:26:22;17.13;;;11.50;;
2161;SDS011;1087;50.226;8.682;2023-04-06T10:28:48;14.87;;;11.93;;
2161;SDS011;1087;50.226;8.682;2023-04-06T10:31:15;13.97;;;11.57;;
2161;SDS011;1087;50.226;8.682;2023-04-06T10:33:53;13.30;;;11.70;;
2161;SDS011;1087;50.226;8.682;2023-04-06T10:36:23;15.70;;;12.70;;
2161;SDS011;1087;50.226;8.682;2023-04-06T10:38:53;11.90;;;10.73;;
2161;SDS011;1087;50.226;8.682;2023-04-06T10:41:23;13.00;;;11.03;;
2161;SDS011;1087;50.226;8.682;2023-04-06T10:43:56;12.13;;;10.80;;
2161;SDS011;1087;50.226;8.682;2023-04-06T10:46:26;12.83;;;10.57;;
2161;SDS011;1087;50.226;8.682;2023-04-06T10:48:53;15.07;;;10.57;;
2161;SDS011;1087;50.226;8.682;2023-04-06T10:51:19;13.83;;;9.90;;
2161;SDS011;1087;50.226;8.682;2023-04-06T10:53:52;10.90;;;9.80;;
2161;SDS011;1087;50.226;8.682;2023-04-06T10:56:21;10.90;;;9.80;;
2161;SDS011;1087;50.226;8.682;2023-04-06T10:58:48;12.80;;;11.43;;
2161;SDS011;1087;50.226;8.682;2023-04-06T11:01:15;10.50;;;9.17;;
2161;SDS011;1087;50.226;8.682;2023-04-06T11:03:43;12.27;;;10.97;;
2161;SDS011;1087;50.226;8.682;2023-04-06T11:06:22;14.07;;;10.90;;
2161;SDS011;1087;50.226;8.682;2023-04-06T11:08:49;14.43;;;11.07;;
2161;SDS011;1087;50.226;8.682;2023-04-06T11:11:16;15.27;;;11.70;;
2161;SDS011;1087;50.226;8.682;2023-04-06T11:16:19;12.43;;;9.83;;
2161;SDS011;1087;50.226;8.682;2023-04-06T11:21:12;14.17;;;9.53;;
2161;SDS011;1087;50.226;8.682;2023-04-06T11:23:38;11.73;;;10.03;;
2161;SDS011;1087;50.226;8.682;2023-04-06T11:26:04;10.90;;;9.50;;
2161;SDS011;1087;50.226;8.682;2023-04-06T11:28:29;12.03;;;10.80;;
2161;SDS011;1087;50.226;8.682;2023-04-06T11:30:55;14.43;;;10.80;;
2161;SDS011;1087;50.226;8.682;2023-04-06T11:33:21;13.23;;;10.13;;
2161;SDS011;1087;50.226;8.682;2023-04-06T11:35:49;13.40;;;10.95;;
2161;SDS011;1087;50.226;8.682;2023-04-06T11:38:17;15.13;;;11.40;;
2161;SDS011;1087;50.226;8.682;2023-04-06T11:40:44;14.13;;;11.37;;
2161;SDS011;1087;50.226;8.682;2023-04-06T11:43:12;13.37;;;10.60;;
2161;SDS011;1087;50.226;8.682;2023-04-06T11:45:41;13.20;;;10.70;;
2161;SDS011;1087;50.226;8.682;2023-04-06T11:48:17;16.27;;;11.90;;
2161;SDS011;1087;50.226;8.682;2023-04-06T11:50:43;13.77;;;11.53;;
2161;SDS011;1087;50.226;8.682;2023-04-06T11:53:12;15.63;;;12.20;;
2161;SDS011;1087;50.226;8.682;2023-04-06T11:55:38;10.53;;;9.30;;
2161;SDS011;1087;50.226;8.682;2023-04-06T11:58:04;14.43;;;10.13;;
2161;SDS011;1087;50.226;8.682;2023-04-06T12:00:30;13.20;;;10.97;;
2161;SDS011;1087;50.226;8.682;2023-04-06T12:02:59;16.97;;;10.93;;
2161;SDS011;1087;50.226;8.682;2023-04-06T12:05:26;18.97;;;12.20;;
2161;SDS011;1087;50.226;8.682;2023-04-06T12:07:53;12.90;;;11.53;;
2161;SDS011;1087;50.226;8.682;2023-04-06T12:10:19;14.53;;;11.97;;
2161;SDS011;1087;50.226;8.682;2023-04-06T12:12:44;13.93;;;11.30;;
2161;SDS011;1087;50.226;8.682;2023-04-06T12:15:10;15.77;;;12.03;;
2161;SDS011;1087;50.226;8.682;2023-04-06T12:17:36;14.80;;;10.83;;
2161;SDS011;1087;50.226;8.682;2023-04-06T12:20:02;11.70;;;9.90;;
2161;SDS011;1087;50.226;8.682;2023-04-06T12:22:28;12.90;;;11.50;;
2161;SDS011;1087;50.226;8.682;2023-04-06T12:24:53;12.90;;;10.70;;
2161;SDS011;1087;50.226;8.682;2023-04-06T12:27:19;13.50;;;11.17;;
2161;SDS011;1087;50.226;8.682;2023-04-06T12:29:46;10.57;;;9.33;;
2161;SDS011;1087;50.226;8.682;2023-04-06T12:32:12;15.17;;;10.70;;
2161;SDS011;1087;50.226;8.682;2023-04-06T12:34:38;13.57;;;11.90;;
2161;SDS011;1087;50.226;8.682;2023-04-06T12:37:03;12.90;;;10.63;;
2161;SDS011;1087;50.226;8.682;2023-04-06T12:39:29;14.03;;;10.33;;
2161;SDS011;1087;50.226;8.682;2023-04-06T12:41:55;15.30;;;11.00;;
2161;SDS011;1087;50.226;8.682;2023-04-06T12:44:22;11.57;;;10.03;;
2161;SDS011;1087;50.226;8.682;2023-04-06T12:46:47;12.57;;;9.67;;
2161;SDS011;1087;50.226;8.682;2023-04-06T12:49:13;16.10;;;11.07;;
2161;SDS011;1087;50.226;8.682;2023-04-06T12:51:41;14.90;;;10.80;;
2161;SDS011;1087;50.226;8.682;2023-04-06T12:54:07;12.70;;;10.00;;
2161;SDS011;1087;50.226;8.682;2023-04-06T12:56:32;15.53;;;10.77;;
2161;SDS011;1087;50.226;8.682;2023-04-06T12:58:58;15.90;;;12.33;;
2161;SDS011;1087;50.226;8.682;2023-04-06T13:01:23;13.60;;;10.03;;
2161;SDS011;1087;50.226;8.682;2023-04-06T13:03:50;14.13;;;10.47;;
2161;SDS011;1087;50.226;8.682;2023-04-06T13:06:16;13.60;;;10.73;;
2161;SDS011;1087;50.226;8.682;2023-04-06T13:08:41;11.87;;;10.10;;
2161;SDS011;1087;50.226;8.682;2023-04-06T13:11:07;11.83;;;8.90;;
2161;SDS011;1087;50.226;8.682;2023-04-06T13:13:33;13.50;;;9.37;;
2161;SDS011;1087;50.226;8.682;2023-04-06T13:16:00;13.30;;;11.13;;
2161;SDS011;1087;50.226;8.682;2023-04-06T13:18:27;13.77;;;10.87;;
2161;SDS011;1087;50.226;8.682;2023-04-06T13:20:54;13.30;;;10.50;;
2161;SDS011;1087;50.226;8.682;2023-04-06T13:23:21;10.63;;;8.90;;
2161;SDS011;1087;50.226;8.682;2023-04-06T13:25:47;12.47;;;10.83;;
2161;SDS011;1087;50.226;8.682;2023-04-06T13:28:12;12.70;;;11.20;;
2161;SDS011;1087;50.226;8.682;2023-04-06T13:30:38;14.00;;;11.03;;
2161;SDS011;1087;50.226;8.682;2023-04-06T13:33:04;11.70;;;9.63;;
2161;SDS011;1087;50.226;8.682;2023-04-06T13:35:31;12.43;;;10.10;;
2161;SDS011;1087;50.226;8.682;2023-04-06T13:37:57;12.40;;;9.53;;
2161;SDS011;1087;50.226;8.682;2023-04-06T13:40:22;11.77;;;9.90;;
2161;SDS011;1087;50.226;8.682;2023-04-06T13:42:48;12.57;;;10.60;;
2161;SDS011;1087;50.226;8.682;2023-04-06T13:45:14;11.83;;;8.40;;
2161;SDS011;1087;50.226;8.682;2023-04-06T13:47:40;11.17;;;9.07;;
2161;SDS011;1087;50.226;8.682;2023-04-06T13:50:06;10.90;;;8.97;;
2161;SDS011;1087;50.226;8.682;2023-04-06T13:52:32;11.93;;;9.57;;
2161;SDS011;1087;50.226;8.682;2023-04-06T13:54:57;9.97;;;8.67;;
2161;SDS011;1087;50.226;8.682;2023-04-06T13:57:23;9.50;;;8.50;;
2161;SDS011;1087;50.226;8.682;2023-04-06T13:59:48;9.13;;;8.07;;
2161;SDS011;1087;50.226;8.682;2023-04-06T14:02:15;9.53;;;8.57;;
2161;SDS011;1087;50.226;8.682;2023-04-06T14:04:41;11.10;;;9.93;;
2161;SDS011;1087;50.226;8.682;2023-04-06T14:07:06;8.93;;;7.90;;
2161;SDS011;1087;50.226;8.682;2023-04-06T14:51:36;14.07;;;8.40;;
2161;SDS011;1087;50.226;8.682;2023-04-06T14:54:02;9.43;;;7.63;;
2161;SDS011;1087;50.226;8.682;2023-04-06T14:56:28;9.60;;;8.33;;
2161;SDS011;1087;50.226;8.682;2023-04-06T14:58:56;11.40;;;8.63;;
2161;SDS011;1087;50.226;8.682;2023-04-06T15:01:23;10.80;;;8.50;;
2161;SDS011;1087;50.226;8.682;2023-04-06T15:03:48;8.83;;;7.57;;
2161;SDS011;1087;50.226;8.682;2023-04-06T15:06:14;9.47;;;8.50;;
2161;SDS011;1087;50.226;8.682;2023-04-06T15:08:41;8.60;;;7.00;;
2161;SDS011;1087;50.226;8.682;2023-04-06T15:11:10;8.07;;;7.33;;
2161;SDS011;1087;50.226;8.682;2023-04-06T15:13:37;8.50;;;7.70;;
2161;SDS011;1087;50.226;8.682;2023-04-06T15:16:03;11.53;;;9.40;;
2161;SDS011;1087;50.226;8.682;2023-04-06T15:18:29;7.43;;;6.73;;
2161;SDS011;1087;50.226;8.682;2023-04-06T15:20:54;9.30;;;8.00;;
2161;SDS011;1087;50.226;8.682;2023-04-06T15:23:20;8.73;;;7.93;;
2161;SDS011;1087;50.226;8.682;2023-04-06T15:25:46;9.60;;;8.13;;
2161;SDS011;1087;50.226;8.682;2023-04-06T15:28:12;8.43;;;7.63;;
2161;SDS011;1087;50.226;8.682;2023-04-06T15:30:37;9.40;;;8.43;;
2161;SDS011;1087;50.226;8.682;2023-04-06T15:33:04;10.10;;;8.50;;
2161;SDS011;1087;50.226;8.682;2023-04-06T15:35:31;9.77;;;8.37;;
2161;SDS011;1087;50.226;8.682;2023-04-06T15:37:59;8.57;;;7.77;;
2161;SDS011;1087;50.226;8.682;2023-04-06T15:40:26;8.47;;;7.60;;
2161;SDS011;1087;50.226;8.682;2023-04-06T15:42:51;7.50;;;6.77;;